sensor_id;sensor_type;location;lat;lon;timestamp;P1;durP1;ratioP1;P2;durP2;ratioP2
15913;SDS011;8055;51.930;8.840;2024-03-29T00:00:57;4.50;;;1.33;;
15913;SDS011;8055;51.930;8.840;2024-03-29T00:03:23;4.60;;;0.93;;
15913;SDS011;8055;51.930;8.840;2024-03-29T00:05:49;5.43;;;1.13;;
15913;SDS011;8055;51.930;8.840;2024-03-29T00:08:14;2.70;;;0.93;;
15913;SDS011;8055;51.930;8.840;2024-03-29T00:10:40;2.15;;;0.90;;
15913;SDS011;8055;51.930;8.840;2024-03-29T00:13:05;3.80;;;1.20;;
15913;SDS011;8055;51.930;8.840;2024-03-29T00:15:33;6.78;;;1.30;;
15913;SDS011;8055;51.930;8.840;2024-03-29T00:17:59;2.28;;;0.80;;
15913;SDS011;8055;51.930;8.840;2024-03-29T00:20:25;6.20;;;1.15;;
15913;SDS011;8055;51.930;8.840;2024-03-29T00:22:50;4.45;;;1.10;;
15913;SDS011;8055;51.930;8.840;2024-03-29T00:25:16;4.20;;;1.10;;
15913;SDS011;8055;51.930;8.840;2024-03-29T00:27:42;4.68;;;1.17;;
15913;SDS011;8055;51.930;8.840;2024-03-29T00:30:09;6.35;;;1.13;;
15913;SDS011;8055;51.930;8.840;2024-03-29T00:32:35;4.13;;;1.55;;
15913;SDS011;8055;51.930;8.840;2024-03-29T00:35:00;8.15;;;1.10;;
15913;SDS011;8055;51.930;8.840;2024-03-29T00:37:25;3.63;;;0.85;;
15913;SDS011;8055;51.930;8.840;2024-03-29T00:39:51;2.05;;;0.90;;
15913;SDS011;8055;51.930;8.840;2024-03-29T00:42:16;3.30;;;0.80;;
15913;SDS011;8055;51.930;8.840;2024-03-29T00:44:44;1.85;;;0.70;;
15913;SDS011;8055;51.930;8.840;2024-03-29T00:47:10;2.22;;;1.00;;
15913;SDS011;8055;51.930;8.840;2024-03-29T00:49:36;4.47;;;0.90;;
15913;SDS011;8055;51.930;8.840;2024-03-29T00:52:02;4.90;;;1.23;;
15913;SDS011;8055;51.930;8.840;2024-03-29T00:54:28;3.08;;;0.80;;
15913;SDS011;8055;51.930;8.840;2024-03-29T00:56:54;3.05;;;1.27;;
15913;SDS011;8055;51.930;8.840;2024-03-29T00:59:19;6.40;;;1.00;;
15913;SDS011;8055;51.930;8.840;2024-03-29T01:01:45;5.18;;;1.33;;
15913;SDS011;8055;51.930;8.840;2024-03-29T01:04:11;2.42;;;0.90;;
15913;SDS011;8055;51.930;8.840;2024-03-29T01:06:37;2.83;;;0.77;;
15913;SDS011;8055;51.930;8.840;2024-03-29T01:09:02;2.05;;;0.75;;
15913;SDS011;8055;51.930;8.840;2024-03-29T01:11:28;2.78;;;0.90;;
15913;SDS011;8055;51.930;8.840;2024-03-29T01:13:54;4.40;;;1.05;;
15913;SDS011;8055;51.930;8.840;2024-03-29T01:16:19;7.57;;;0.85;;
15913;SDS011;8055;51.930;8.840;2024-03-29T01:18:45;3.75;;;0.80;;
15913;SDS011;8055;51.930;8.840;2024-03-29T01:21:11;4.22;;;0.85;;
15913;SDS011;8055;51.930;8.840;2024-03-29T01:23:37;4.40;;;0.98;;
15913;SDS011;8055;51.930;8.840;2024-03-29T01:26:03;3.38;;;0.82;;
15913;SDS011;8055;51.930;8.840;2024-03-29T01:28:29;1.90;;;0.90;;
15913;SDS011;8055;51.930;8.840;2024-03-29T01:30:55;2.78;;;1.00;;
15913;SDS011;8055;51.930;8.840;2024-03-29T01:33:20;4.65;;;1.10;;
15913;SDS011;8055;51.930;8.840;2024-03-29T01:35:46;3.53;;;0.70;;
15913;SDS011;8055;51.930;8.840;2024-03-29T01:38:12;3.40;;;1.25;;
15913;SDS011;8055;51.930;8.840;2024-03-29T01:40:39;5.32;;;1.08;;
15913;SDS011;8055;51.930;8.840;2024-03-29T01:43:05;2.90;;;1.02;;
15913;SDS011;8055;51.930;8.840;2024-03-29T01:45:30;4.03;;;1.15;;
15913;SDS011;8055;51.930;8.840;2024-03-29T01:47:56;5.68;;;1.17;;
15913;SDS011;8055;51.930;8.840;2024-03-29T01:50:21;4.60;;;1.05;;
15913;SDS011;8055;51.930;8.840;2024-03-29T01:52:47;7.13;;;1.10;;
15913;SDS011;8055;51.930;8.840;2024-03-29T01:55:14;4.25;;;1.35;;
15913;SDS011;8055;51.930;8.840;2024-03-29T01:57:40;4.85;;;1.40;;
15913;SDS011;8055;51.930;8.840;2024-03-29T02:00:06;2.95;;;1.00;;
15913;SDS011;8055;51.930;8.840;2024-03-29T02:02:32;5.45;;;1.13;;
15913;SDS011;8055;51.930;8.840;2024-03-29T02:04:58;3.42;;;1.38;;
15913;SDS011;8055;51.930;8.840;2024-03-29T02:07:24;3.28;;;1.00;;
15913;SDS011;8055;51.930;8.840;2024-03-29T02:09:50;4.75;;;1.20;;
15913;SDS011;8055;51.930;8.840;2024-03-29T02:12:15;4.22;;;1.10;;
15913;SDS011;8055;51.930;8.840;2024-03-29T02:14:41;5.68;;;1.10;;
15913;SDS011;8055;51.930;8.840;2024-03-29T02:17:07;3.45;;;1.02;;
15913;SDS011;8055;51.930;8.840;2024-03-29T02:19:33;5.65;;;1.33;;
15913;SDS011;8055;51.930;8.840;2024-03-29T02:21:59;3.47;;;1.20;;
15913;SDS011;8055;51.930;8.840;2024-03-29T02:24:26;5.53;;;1.20;;
15913;SDS011;8055;51.930;8.840;2024-03-29T02:26:52;2.45;;;1.13;;
15913;SDS011;8055;51.930;8.840;2024-03-29T02:29:21;5.65;;;1.23;;
15913;SDS011;8055;51.930;8.840;2024-03-29T02:31:47;3.25;;;0.95;;
15913;SDS011;8055;51.930;8.840;2024-03-29T02:34:12;1.25;;;0.90;;
15913;SDS011;8055;51.930;8.840;2024-03-29T02:36:37;3.10;;;1.27;;
15913;SDS011;8055;51.930;8.840;2024-03-29T02:39:03;7.75;;;1.75;;
15913;SDS011;8055;51.930;8.840;2024-03-29T02:41:28;6.18;;;1.13;;
15913;SDS011;8055;51.930;8.840;2024-03-29T02:43:55;3.38;;;1.00;;
15913;SDS011;8055;51.930;8.840;2024-03-29T02:46:21;6.68;;;1.20;;
15913;SDS011;8055;51.930;8.840;2024-03-29T02:48:46;4.30;;;1.10;;
15913;SDS011;8055;51.930;8.840;2024-03-29T02:51:11;3.83;;;1.20;;
15913;SDS011;8055;51.930;8.840;2024-03-29T02:53:37;5.35;;;0.98;;
15913;SDS011;8055;51.930;8.840;2024-03-29T02:56:03;2.80;;;1.02;;
15913;SDS011;8055;51.930;8.840;2024-03-29T02:58:29;2.38;;;1.00;;
15913;SDS011;8055;51.930;8.840;2024-03-29T03:00:55;3.53;;;0.90;;
15913;SDS011;8055;51.930;8.840;2024-03-29T03:03:23;4.65;;;1.00;;
15913;SDS011;8055;51.930;8.840;2024-03-29T03:05:51;3.35;;;0.98;;
15913;SDS011;8055;51.930;8.840;2024-03-29T03:08:19;4.75;;;1.02;;
15913;SDS011;8055;51.930;8.840;2024-03-29T03:11:04;4.90;;;1.10;;
15913;SDS011;8055;51.930;8.840;2024-03-29T03:13:30;1.75;;;0.90;;
15913;SDS011;8055;51.930;8.840;2024-03-29T03:15:55;3.42;;;0.80;;
15913;SDS011;8055;51.930;8.840;2024-03-29T03:18:21;5.20;;;1.33;;
15913;SDS011;8055;51.930;8.840;2024-03-29T03:20:50;3.42;;;1.10;;
15913;SDS011;8055;51.930;8.840;2024-03-29T03:23:16;2.03;;;1.00;;
15913;SDS011;8055;51.930;8.840;2024-03-29T03:25:42;6.32;;;1.08;;
15913;SDS011;8055;51.930;8.840;2024-03-29T03:28:07;2.33;;;0.90;;
15913;SDS011;8055;51.930;8.840;2024-03-29T03:30:32;4.07;;;0.90;;
15913;SDS011;8055;51.930;8.840;2024-03-29T03:33:02;4.82;;;1.10;;
15913;SDS011;8055;51.930;8.840;2024-03-29T03:35:28;4.47;;;1.10;;
15913;SDS011;8055;51.930;8.840;2024-03-29T03:37:53;3.33;;;1.05;;
15913;SDS011;8055;51.930;8.840;2024-03-29T03:40:18;5.80;;;0.82;;
15913;SDS011;8055;51.930;8.840;2024-03-29T03:42:44;2.08;;;0.95;;
15913;SDS011;8055;51.930;8.840;2024-03-29T03:45:10;2.03;;;0.80;;
15913;SDS011;8055;51.930;8.840;2024-03-29T03:47:35;1.80;;;0.98;;
15913;SDS011;8055;51.930;8.840;2024-03-29T03:50:00;2.13;;;1.02;;
15913;SDS011;8055;51.930;8.840;2024-03-29T03:52:26;4.03;;;0.90;;
15913;SDS011;8055;51.930;8.840;2024-03-29T03:54:51;3.20;;;0.90;;
15913;SDS011;8055;51.930;8.840;2024-03-29T03:57:16;3.60;;;0.82;;
15913;SDS011;8055;51.930;8.840;2024-03-29T03:59:42;4.05;;;0.70;;
15913;SDS011;8055;51.930;8.840;2024-03-29T04:02:07;4.55;;;0.95;;
15913;SDS011;8055;51.930;8.840;2024-03-29T04:04:32;5.13;;;1.45;;
15913;SDS011;8055;51.930;8.840;2024-03-29T04:06:58;2.08;;;0.77;;
15913;SDS011;8055;51.930;8.840;2024-03-29T04:09:23;1.73;;;0.80;;
15913;SDS011;8055;51.930;8.840;2024-03-29T04:11:48;7.68;;;1.00;;
15913;SDS011;8055;51.930;8.840;2024-03-29T04:14:14;2.28;;;1.10;;
15913;SDS011;8055;51.930;8.840;2024-03-29T04:16:39;3.00;;;0.82;;
15913;SDS011;8055;51.930;8.840;2024-03-29T04:19:05;3.95;;;0.90;;
15913;SDS011;8055;51.930;8.840;2024-03-29T04:21:30;2.72;;;1.25;;
15913;SDS011;8055;51.930;8.840;2024-03-29T04:23:55;1.70;;;0.60;;
15913;SDS011;8055;51.930;8.840;2024-03-29T04:26:21;2.90;;;0.75;;
15913;SDS011;8055;51.930;8.840;2024-03-29T04:28:47;2.28;;;1.00;;
15913;SDS011;8055;51.930;8.840;2024-03-29T04:31:12;4.65;;;1.20;;
15913;SDS011;8055;51.930;8.840;2024-03-29T04:33:38;2.38;;;0.93;;
15913;SDS011;8055;51.930;8.840;2024-03-29T04:36:03;5.25;;;1.10;;
15913;SDS011;8055;51.930;8.840;2024-03-29T04:38:30;4.55;;;1.02;;
15913;SDS011;8055;51.930;8.840;2024-03-29T04:40:56;2.65;;;0.70;;
15913;SDS011;8055;51.930;8.840;2024-03-29T04:43:26;2.83;;;1.08;;
15913;SDS011;8055;51.930;8.840;2024-03-29T04:46:11;4.22;;;0.90;;
15913;SDS011;8055;51.930;8.840;2024-03-29T04:48:38;1.75;;;1.00;;
15913;SDS011;8055;51.930;8.840;2024-03-29T04:51:05;2.20;;;0.65;;
15913;SDS011;8055;51.930;8.840;2024-03-29T04:53:30;1.42;;;0.77;;
15913;SDS011;8055;51.930;8.840;2024-03-29T04:55:56;6.90;;;1.05;;
15913;SDS011;8055;51.930;8.840;2024-03-29T04:58:23;2.95;;;1.08;;
15913;SDS011;8055;51.930;8.840;2024-03-29T05:00:49;2.28;;;1.00;;
15913;SDS011;8055;51.930;8.840;2024-03-29T05:03:19;2.45;;;0.80;;
15913;SDS011;8055;51.930;8.840;2024-03-29T05:05:45;2.58;;;1.10;;
15913;SDS011;8055;51.930;8.840;2024-03-29T05:08:11;2.90;;;0.77;;
15913;SDS011;8055;51.930;8.840;2024-03-29T05:10:36;3.38;;;0.73;;
15913;SDS011;8055;51.930;8.840;2024-03-29T05:13:02;2.70;;;1.08;;
15913;SDS011;8055;51.930;8.840;2024-03-29T05:15:28;2.45;;;0.85;;
15913;SDS011;8055;51.930;8.840;2024-03-29T05:17:54;3.70;;;1.10;;
15913;SDS011;8055;51.930;8.840;2024-03-29T05:20:19;4.07;;;0.80;;
15913;SDS011;8055;51.930;8.840;2024-03-29T05:22:45;2.22;;;0.93;;
15913;SDS011;8055;51.930;8.840;2024-03-29T05:25:10;3.40;;;1.13;;
15913;SDS011;8055;51.930;8.840;2024-03-29T05:27:35;5.18;;;0.90;;
15913;SDS011;8055;51.930;8.840;2024-03-29T05:30:01;2.35;;;0.90;;
15913;SDS011;8055;51.930;8.840;2024-03-29T05:32:28;4.43;;;0.95;;
15913;SDS011;8055;51.930;8.840;2024-03-29T05:34:54;4.30;;;1.42;;
15913;SDS011;8055;51.930;8.840;2024-03-29T05:37:19;3.10;;;1.60;;
15913;SDS011;8055;51.930;8.840;2024-03-29T05:39:45;2.05;;;1.00;;
15913;SDS011;8055;51.930;8.840;2024-03-29T05:42:12;2.97;;;0.70;;
15913;SDS011;8055;51.930;8.840;2024-03-29T05:44:37;1.70;;;0.70;;
15913;SDS011;8055;51.930;8.840;2024-03-29T05:47:03;4.90;;;0.95;;
15913;SDS011;8055;51.930;8.840;2024-03-29T05:49:30;6.28;;;1.10;;
15913;SDS011;8055;51.930;8.840;2024-03-29T05:51:56;1.52;;;0.80;;
15913;SDS011;8055;51.930;8.840;2024-03-29T05:54:21;3.22;;;1.17;;
15913;SDS011;8055;51.930;8.840;2024-03-29T05:56:47;4.10;;;1.08;;
15913;SDS011;8055;51.930;8.840;2024-03-29T05:59:13;4.75;;;1.00;;
15913;SDS011;8055;51.930;8.840;2024-03-29T06:01:38;4.28;;;1.45;;
15913;SDS011;8055;51.930;8.840;2024-03-29T06:04:04;4.07;;;0.88;;
15913;SDS011;8055;51.930;8.840;2024-03-29T06:06:33;1.63;;;0.80;;
15913;SDS011;8055;51.930;8.840;2024-03-29T06:08:59;2.38;;;0.98;;
15913;SDS011;8055;51.930;8.840;2024-03-29T06:11:25;11.20;;;1.20;;
15913;SDS011;8055;51.930;8.840;2024-03-29T06:13:50;3.30;;;1.05;;
15913;SDS011;8055;51.930;8.840;2024-03-29T06:16:21;3.42;;;1.38;;
15913;SDS011;8055;51.930;8.840;2024-03-29T06:19:07;4.10;;;1.08;;
15913;SDS011;8055;51.930;8.840;2024-03-29T06:21:33;3.85;;;1.17;;
15913;SDS011;8055;51.930;8.840;2024-03-29T06:24:07;1.95;;;0.90;;
15913;SDS011;8055;51.930;8.840;2024-03-29T06:26:33;3.53;;;1.10;;
15913;SDS011;8055;51.930;8.840;2024-03-29T06:29:00;3.05;;;1.00;;
15913;SDS011;8055;51.930;8.840;2024-03-29T06:31:26;4.72;;;1.50;;
15913;SDS011;8055;51.930;8.840;2024-03-29T06:33:51;4.82;;;1.40;;
15913;SDS011;8055;51.930;8.840;2024-03-29T06:36:18;3.95;;;1.02;;
15913;SDS011;8055;51.930;8.840;2024-03-29T06:38:44;3.10;;;1.17;;
15913;SDS011;8055;51.930;8.840;2024-03-29T06:41:09;3.78;;;1.50;;
15913;SDS011;8055;51.930;8.840;2024-03-29T06:43:35;8.27;;;2.38;;
15913;SDS011;8055;51.930;8.840;2024-03-29T06:46:00;6.45;;;2.70;;
15913;SDS011;8055;51.930;8.840;2024-03-29T06:48:27;5.50;;;2.63;;
15913;SDS011;8055;51.930;8.840;2024-03-29T06:50:53;6.53;;;3.10;;
15913;SDS011;8055;51.930;8.840;2024-03-29T06:53:19;5.57;;;2.55;;
15913;SDS011;8055;51.930;8.840;2024-03-29T06:55:45;6.10;;;2.47;;
15913;SDS011;8055;51.930;8.840;2024-03-29T06:58:10;7.63;;;2.65;;
15913;SDS011;8055;51.930;8.840;2024-03-29T07:00:36;5.35;;;2.47;;
15913;SDS011;8055;51.930;8.840;2024-03-29T07:03:01;5.68;;;2.20;;
15913;SDS011;8055;51.930;8.840;2024-03-29T07:05:27;6.55;;;1.90;;
15913;SDS011;8055;51.930;8.840;2024-03-29T07:07:52;5.93;;;1.50;;
15913;SDS011;8055;51.930;8.840;2024-03-29T07:10:19;4.85;;;1.67;;
15913;SDS011;8055;51.930;8.840;2024-03-29T07:12:44;6.18;;;1.60;;
15913;SDS011;8055;51.930;8.840;2024-03-29T07:15:09;3.33;;;1.33;;
15913;SDS011;8055;51.930;8.840;2024-03-29T07:17:35;3.50;;;1.27;;
15913;SDS011;8055;51.930;8.840;2024-03-29T07:20:00;2.88;;;1.27;;
15913;SDS011;8055;51.930;8.840;2024-03-29T07:22:25;4.53;;;1.05;;
15913;SDS011;8055;51.930;8.840;2024-03-29T07:24:52;4.40;;;1.50;;
15913;SDS011;8055;51.930;8.840;2024-03-29T07:27:18;1.48;;;0.90;;
15913;SDS011;8055;51.930;8.840;2024-03-29T07:29:45;3.10;;;0.95;;
15913;SDS011;8055;51.930;8.840;2024-03-29T07:32:11;3.08;;;1.10;;
15913;SDS011;8055;51.930;8.840;2024-03-29T07:34:36;2.67;;;1.20;;
15913;SDS011;8055;51.930;8.840;2024-03-29T07:37:05;3.70;;;1.10;;
15913;SDS011;8055;51.930;8.840;2024-03-29T07:39:30;2.25;;;0.90;;
15913;SDS011;8055;51.930;8.840;2024-03-29T07:41:55;3.70;;;0.95;;
15913;SDS011;8055;51.930;8.840;2024-03-29T07:44:21;2.80;;;1.40;;
15913;SDS011;8055;51.930;8.840;2024-03-29T07:46:46;3.55;;;1.00;;
15913;SDS011;8055;51.930;8.840;2024-03-29T07:49:13;4.05;;;1.00;;
15913;SDS011;8055;51.930;8.840;2024-03-29T07:51:39;3.83;;;1.02;;
15913;SDS011;8055;51.930;8.840;2024-03-29T07:54:04;2.10;;;1.20;;
15913;SDS011;8055;51.930;8.840;2024-03-29T07:56:29;2.67;;;1.17;;
15913;SDS011;8055;51.930;8.840;2024-03-29T07:58:55;3.20;;;1.00;;
15913;SDS011;8055;51.930;8.840;2024-03-29T08:01:20;3.00;;;1.05;;
15913;SDS011;8055;51.930;8.840;2024-03-29T08:03:47;2.22;;;1.10;;
15913;SDS011;8055;51.930;8.840;2024-03-29T08:06:15;2.15;;;1.13;;
15913;SDS011;8055;51.930;8.840;2024-03-29T08:08:43;3.03;;;1.20;;
15913;SDS011;8055;51.930;8.840;2024-03-29T08:11:08;1.60;;;0.93;;
15913;SDS011;8055;51.930;8.840;2024-03-29T08:13:35;5.10;;;1.15;;
15913;SDS011;8055;51.930;8.840;2024-03-29T08:16:01;3.58;;;1.30;;
15913;SDS011;8055;51.930;8.840;2024-03-29T08:18:27;3.70;;;1.20;;
15913;SDS011;8055;51.930;8.840;2024-03-29T08:20:53;3.95;;;1.13;;
15913;SDS011;8055;51.930;8.840;2024-03-29T08:23:20;3.55;;;1.00;;
15913;SDS011;8055;51.930;8.840;2024-03-29T08:25:48;2.50;;;1.00;;
15913;SDS011;8055;51.930;8.840;2024-03-29T08:28:14;2.20;;;0.90;;
15913;SDS011;8055;51.930;8.840;2024-03-29T08:30:40;2.97;;;1.05;;
15913;SDS011;8055;51.930;8.840;2024-03-29T08:33:05;2.40;;;0.90;;
15913;SDS011;8055;51.930;8.840;2024-03-29T08:35:32;3.20;;;1.40;;
15913;SDS011;8055;51.930;8.840;2024-03-29T08:37:58;1.13;;;0.93;;
15913;SDS011;8055;51.930;8.840;2024-03-29T08:40:24;2.13;;;1.33;;
15913;SDS011;8055;51.930;8.840;2024-03-29T08:42:54;2.22;;;0.90;;
15913;SDS011;8055;51.930;8.840;2024-03-29T08:45:20;2.00;;;1.08;;
15913;SDS011;8055;51.930;8.840;2024-03-29T08:47:46;1.65;;;0.80;;
15913;SDS011;8055;51.930;8.840;2024-03-29T08:50:11;2.67;;;1.13;;
15913;SDS011;8055;51.930;8.840;2024-03-29T08:52:38;1.92;;;1.10;;
15913;SDS011;8055;51.930;8.840;2024-03-29T08:55:04;3.28;;;1.63;;
15913;SDS011;8055;51.930;8.840;2024-03-29T08:57:30;2.53;;;1.38;;
15913;SDS011;8055;51.930;8.840;2024-03-29T08:59:55;3.20;;;1.25;;
15913;SDS011;8055;51.930;8.840;2024-03-29T09:02:21;1.92;;;1.05;;
15913;SDS011;8055;51.930;8.840;2024-03-29T09:04:46;2.95;;;1.27;;
15913;SDS011;8055;51.930;8.840;2024-03-29T09:07:12;3.13;;;1.40;;
15913;SDS011;8055;51.930;8.840;2024-03-29T09:09:37;2.13;;;1.38;;
15913;SDS011;8055;51.930;8.840;2024-03-29T09:12:06;3.42;;;1.40;;
15913;SDS011;8055;51.930;8.840;2024-03-29T09:14:32;3.40;;;1.17;;
15913;SDS011;8055;51.930;8.840;2024-03-29T09:16:57;2.55;;;1.33;;
15913;SDS011;8055;51.930;8.840;2024-03-29T09:19:23;2.13;;;1.20;;
15913;SDS011;8055;51.930;8.840;2024-03-29T09:21:49;2.92;;;1.20;;
15913;SDS011;8055;51.930;8.840;2024-03-29T09:24:15;3.28;;;1.10;;
15913;SDS011;8055;51.930;8.840;2024-03-29T09:26:42;1.65;;;0.98;;
15913;SDS011;8055;51.930;8.840;2024-03-29T09:29:07;3.58;;;1.00;;
15913;SDS011;8055;51.930;8.840;2024-03-29T09:31:33;1.88;;;0.88;;
15913;SDS011;8055;51.930;8.840;2024-03-29T09:34:00;3.08;;;1.10;;
15913;SDS011;8055;51.930;8.840;2024-03-29T09:36:25;1.60;;;0.90;;
15913;SDS011;8055;51.930;8.840;2024-03-29T09:38:51;8.55;;;5.05;;
15913;SDS011;8055;51.930;8.840;2024-03-29T09:41:17;13.52;;;7.18;;
15913;SDS011;8055;51.930;8.840;2024-03-29T09:43:45;11.70;;;5.22;;
15913;SDS011;8055;51.930;8.840;2024-03-29T09:46:14;10.60;;;7.22;;
15913;SDS011;8055;51.930;8.840;2024-03-29T09:48:40;3.40;;;2.58;;
15913;SDS011;8055;51.930;8.840;2024-03-29T09:51:07;1.90;;;1.38;;
15913;SDS011;8055;51.930;8.840;2024-03-29T09:53:34;8.52;;;6.30;;
15913;SDS011;8055;51.930;8.840;2024-03-29T09:56:04;1.70;;;0.98;;
15913;SDS011;8055;51.930;8.840;2024-03-29T09:58:30;2.72;;;1.27;;
15913;SDS011;8055;51.930;8.840;2024-03-29T10:00:57;1.92;;;1.38;;
15913;SDS011;8055;51.930;8.840;2024-03-29T10:03:25;1.90;;;1.67;;
15913;SDS011;8055;51.930;8.840;2024-03-29T10:08:26;4.37;;;2.83;;
15913;SDS011;8055;51.930;8.840;2024-03-29T10:10:53;3.42;;;1.33;;
15913;SDS011;8055;51.930;8.840;2024-03-29T10:13:19;1.70;;;1.25;;
15913;SDS011;8055;51.930;8.840;2024-03-29T10:15:44;4.07;;;1.60;;
15913;SDS011;8055;51.930;8.840;2024-03-29T10:18:14;1.05;;;0.80;;
15913;SDS011;8055;51.930;8.840;2024-03-29T10:20:40;2.50;;;0.85;;
15913;SDS011;8055;51.930;8.840;2024-03-29T10:23:05;1.75;;;0.85;;
15913;SDS011;8055;51.930;8.840;2024-03-29T10:25:32;1.38;;;0.90;;
15913;SDS011;8055;51.930;8.840;2024-03-29T10:28:00;3.00;;;2.20;;
15913;SDS011;8055;51.930;8.840;2024-03-29T10:30:27;2.15;;;1.90;;
15913;SDS011;8055;51.930;8.840;2024-03-29T10:32:56;2.13;;;1.80;;
15913;SDS011;8055;51.930;8.840;2024-03-29T10:35:22;1.33;;;1.05;;
15913;SDS011;8055;51.930;8.840;2024-03-29T10:37:47;1.60;;;0.80;;
15913;SDS011;8055;51.930;8.840;2024-03-29T10:40:13;0.93;;;0.70;;
15913;SDS011;8055;51.930;8.840;2024-03-29T10:42:41;1.10;;;0.63;;
15913;SDS011;8055;51.930;8.840;2024-03-29T10:45:07;2.53;;;0.82;;
15913;SDS011;8055;51.930;8.840;2024-03-29T10:47:33;0.70;;;0.70;;
15913;SDS011;8055;51.930;8.840;2024-03-29T10:49:59;1.17;;;1.00;;
15913;SDS011;8055;51.930;8.840;2024-03-29T10:52:25;1.60;;;0.80;;
15913;SDS011;8055;51.930;8.840;2024-03-29T10:54:51;0.80;;;0.80;;
15913;SDS011;8055;51.930;8.840;2024-03-29T10:57:24;2.60;;;1.00;;
15913;SDS011;8055;51.930;8.840;2024-03-29T11:00:04;1.55;;;1.00;;
15913;SDS011;8055;51.930;8.840;2024-03-29T11:05:26;0.80;;;0.77;;
15913;SDS011;8055;51.930;8.840;2024-03-29T11:07:54;1.40;;;0.80;;
15913;SDS011;8055;51.930;8.840;2024-03-29T11:10:38;1.35;;;0.80;;
15913;SDS011;8055;51.930;8.840;2024-03-29T11:15:55;2.22;;;0.73;;
15913;SDS011;8055;51.930;8.840;2024-03-29T11:18:21;0.77;;;0.52;;
15913;SDS011;8055;51.930;8.840;2024-03-29T11:20:49;1.35;;;0.70;;
15913;SDS011;8055;51.930;8.840;2024-03-29T11:23:19;1.08;;;0.77;;
15913;SDS011;8055;51.930;8.840;2024-03-29T11:25:46;1.00;;;0.90;;
15913;SDS011;8055;51.930;8.840;2024-03-29T11:28:23;1.70;;;1.08;;
15913;SDS011;8055;51.930;8.840;2024-03-29T11:30:56;0.93;;;0.93;;
15913;SDS011;8055;51.930;8.840;2024-03-29T11:38:33;3.00;;;1.55;;
15913;SDS011;8055;51.930;8.840;2024-03-29T11:43:38;1.42;;;0.80;;
15913;SDS011;8055;51.930;8.840;2024-03-29T11:46:05;0.60;;;0.52;;
15913;SDS011;8055;51.930;8.840;2024-03-29T11:48:32;1.17;;;0.50;;
15913;SDS011;8055;51.930;8.840;2024-03-29T11:50:58;0.85;;;0.50;;
15913;SDS011;8055;51.930;8.840;2024-03-29T11:53:25;0.88;;;0.52;;
15913;SDS011;8055;51.930;8.840;2024-03-29T11:55:52;0.70;;;0.70;;
15913;SDS011;8055;51.930;8.840;2024-03-29T11:58:22;1.08;;;0.60;;
15913;SDS011;8055;51.930;8.840;2024-03-29T12:00:48;0.73;;;0.60;;
15913;SDS011;8055;51.930;8.840;2024-03-29T12:03:15;1.23;;;0.70;;
15913;SDS011;8055;51.930;8.840;2024-03-29T12:05:46;3.50;;;0.80;;
15913;SDS011;8055;51.930;8.840;2024-03-29T12:08:12;0.70;;;0.60;;
15913;SDS011;8055;51.930;8.840;2024-03-29T12:10:38;0.95;;;0.80;;
15913;SDS011;8055;51.930;8.840;2024-03-29T12:13:07;1.88;;;0.98;;
15913;SDS011;8055;51.930;8.840;2024-03-29T12:15:33;2.22;;;0.93;;
15913;SDS011;8055;51.930;8.840;2024-03-29T12:17:59;2.30;;;0.95;;
15913;SDS011;8055;51.930;8.840;2024-03-29T12:20:30;1.75;;;0.90;;
15913;SDS011;8055;51.930;8.840;2024-03-29T12:23:01;2.03;;;1.30;;
15913;SDS011;8055;51.930;8.840;2024-03-29T12:25:28;1.25;;;1.00;;
15913;SDS011;8055;51.930;8.840;2024-03-29T12:27:54;1.83;;;0.98;;
15913;SDS011;8055;51.930;8.840;2024-03-29T12:30:20;1.38;;;0.88;;
15913;SDS011;8055;51.930;8.840;2024-03-29T12:32:45;1.10;;;0.90;;
15913;SDS011;8055;51.930;8.840;2024-03-29T12:35:12;1.15;;;0.85;;
15913;SDS011;8055;51.930;8.840;2024-03-29T12:37:46;1.45;;;0.95;;
15913;SDS011;8055;51.930;8.840;2024-03-29T12:40:16;0.88;;;0.80;;
15913;SDS011;8055;51.930;8.840;2024-03-29T12:42:47;1.27;;;0.90;;
15913;SDS011;8055;51.930;8.840;2024-03-29T12:45:16;1.77;;;1.13;;
15913;SDS011;8055;51.930;8.840;2024-03-29T12:47:42;1.85;;;1.20;;
15913;SDS011;8055;51.930;8.840;2024-03-29T12:50:07;1.13;;;1.00;;
15913;SDS011;8055;51.930;8.840;2024-03-29T12:52:36;1.38;;;0.98;;
15913;SDS011;8055;51.930;8.840;2024-03-29T12:55:06;2.65;;;0.93;;
15913;SDS011;8055;51.930;8.840;2024-03-29T12:57:35;2.63;;;1.00;;
15913;SDS011;8055;51.930;8.840;2024-03-29T13:00:03;2.50;;;1.00;;
15913;SDS011;8055;51.930;8.840;2024-03-29T13:02:33;0.95;;;0.75;;
15913;SDS011;8055;51.930;8.840;2024-03-29T13:05:05;0.90;;;0.80;;
15913;SDS011;8055;51.930;8.840;2024-03-29T13:07:31;1.27;;;1.05;;
15913;SDS011;8055;51.930;8.840;2024-03-29T13:09:57;1.42;;;0.80;;
15913;SDS011;8055;51.930;8.840;2024-03-29T13:12:30;1.92;;;1.02;;
15913;SDS011;8055;51.930;8.840;2024-03-29T13:14:56;2.58;;;1.20;;
15913;SDS011;8055;51.930;8.840;2024-03-29T13:17:21;1.48;;;1.25;;
15913;SDS011;8055;51.930;8.840;2024-03-29T13:19:47;1.95;;;1.15;;
15913;SDS011;8055;51.930;8.840;2024-03-29T13:22:12;1.38;;;0.82;;
15913;SDS011;8055;51.930;8.840;2024-03-29T13:24:37;1.90;;;1.17;;
15913;SDS011;8055;51.930;8.840;2024-03-29T13:27:03;2.03;;;1.35;;
15913;SDS011;8055;51.930;8.840;2024-03-29T13:29:29;2.50;;;1.20;;
15913;SDS011;8055;51.930;8.840;2024-03-29T13:31:55;2.38;;;1.50;;
15913;SDS011;8055;51.930;8.840;2024-03-29T13:34:21;1.35;;;1.10;;
15913;SDS011;8055;51.930;8.840;2024-03-29T13:36:47;2.67;;;1.00;;
15913;SDS011;8055;51.930;8.840;2024-03-29T13:39:13;1.48;;;1.20;;
15913;SDS011;8055;51.930;8.840;2024-03-29T13:41:40;2.50;;;1.77;;
15913;SDS011;8055;51.930;8.840;2024-03-29T13:44:06;1.80;;;1.10;;
15913;SDS011;8055;51.930;8.840;2024-03-29T13:46:35;3.58;;;1.25;;
15913;SDS011;8055;51.930;8.840;2024-03-29T13:49:01;2.85;;;1.00;;
15913;SDS011;8055;51.930;8.840;2024-03-29T13:51:30;1.17;;;1.08;;
15913;SDS011;8055;51.930;8.840;2024-03-29T13:53:56;2.53;;;1.15;;
15913;SDS011;8055;51.930;8.840;2024-03-29T13:56:21;2.67;;;1.10;;
15913;SDS011;8055;51.930;8.840;2024-03-29T13:58:47;2.05;;;0.90;;
15913;SDS011;8055;51.930;8.840;2024-03-29T14:01:13;2.67;;;1.02;;
15913;SDS011;8055;51.930;8.840;2024-03-29T14:03:38;2.63;;;1.10;;
15913;SDS011;8055;51.930;8.840;2024-03-29T14:06:04;1.65;;;1.00;;
15913;SDS011;8055;51.930;8.840;2024-03-29T14:08:30;1.17;;;0.90;;
15913;SDS011;8055;51.930;8.840;2024-03-29T14:10:56;1.92;;;1.08;;
15913;SDS011;8055;51.930;8.840;2024-03-29T14:13:22;2.53;;;0.93;;
15913;SDS011;8055;51.930;8.840;2024-03-29T14:15:48;1.30;;;1.10;;
15913;SDS011;8055;51.930;8.840;2024-03-29T14:18:14;3.50;;;1.08;;
15913;SDS011;8055;51.930;8.840;2024-03-29T14:20:39;1.15;;;1.00;;
15913;SDS011;8055;51.930;8.840;2024-03-29T14:23:05;2.75;;;1.08;;
15913;SDS011;8055;51.930;8.840;2024-03-29T14:25:34;0.90;;;0.70;;
15913;SDS011;8055;51.930;8.840;2024-03-29T14:28:01;6.32;;;1.08;;
15913;SDS011;8055;51.930;8.840;2024-03-29T14:30:28;1.10;;;1.00;;
15913;SDS011;8055;51.930;8.840;2024-03-29T14:32:54;1.17;;;0.70;;
15913;SDS011;8055;51.930;8.840;2024-03-29T14:35:20;2.00;;;0.90;;
15913;SDS011;8055;51.930;8.840;2024-03-29T14:37:46;2.40;;;1.02;;
15913;SDS011;8055;51.930;8.840;2024-03-29T14:40:11;2.20;;;1.50;;
15913;SDS011;8055;51.930;8.840;2024-03-29T14:42:39;1.77;;;1.20;;
15913;SDS011;8055;51.930;8.840;2024-03-29T14:45:05;2.08;;;1.00;;
15913;SDS011;8055;51.930;8.840;2024-03-29T14:47:31;2.47;;;1.00;;
15913;SDS011;8055;51.930;8.840;2024-03-29T14:49:58;3.92;;;1.88;;
15913;SDS011;8055;51.930;8.840;2024-03-29T14:52:28;2.85;;;1.58;;
15913;SDS011;8055;51.930;8.840;2024-03-29T14:54:53;4.53;;;1.63;;
15913;SDS011;8055;51.930;8.840;2024-03-29T14:57:19;1.85;;;1.10;;
15913;SDS011;8055;51.930;8.840;2024-03-29T14:59:47;3.40;;;1.50;;
15913;SDS011;8055;51.930;8.840;2024-03-29T15:02:15;1.55;;;1.00;;
15913;SDS011;8055;51.930;8.840;2024-03-29T15:04:41;1.58;;;1.17;;
15913;SDS011;8055;51.930;8.840;2024-03-29T15:07:06;1.77;;;1.17;;
15913;SDS011;8055;51.930;8.840;2024-03-29T15:09:33;3.08;;;2.05;;
15913;SDS011;8055;51.930;8.840;2024-03-29T15:11:59;1.40;;;0.80;;